Time;durP1;ratioP1;P1;durP2;ratioP2;P2;SDS_P1;SDS_P2;PMS_P1;PMS_P2;Temp;Humidity;BMP_temperature;BMP_pressure;BME280_temperature;BME280_humidity;BME280_pressure;Samples;Min_cycle;Max_cycle;Signal;HPM_P1;HPM_P2
2024/04/12 00:01:48;;;;;;;20.25;13.70;;;13.00;99.90;;;;;;5298866;26;20006;-83
2024/04/12 00:04:18;;;;;;;24.77;15.52;;;13.00;99.90;;;;;;5304584;26;20009;-84
2024/04/12 00:06:52;;;;;;;18.85;14.45;;;13.10;99.90;;;;;;5278914;26;20033;-84
2024/04/12 00:09:19;;;;;;;21.48;14.13;;;13.40;99.90;;;;;;5334311;26;20038;-84
2024/04/12 00:11:53;;;;;;;23.65;14.95;;;13.00;99.90;;;;;;5279313;26;20015;-84
2024/04/12 00:14:26;;;;;;;22.75;15.68;;;13.10;99.90;;;;;;5278519;26;20011;-83
2024/04/12 00:16:53;;;;;;;22.45;15.57;;;13.00;99.90;;;;;;5276307;26;20348;-84
2024/04/12 00:19:22;;;;;;;25.48;16.05;;;13.10;99.90;;;;;;5304260;26;20008;-84
2024/04/12 00:21:52;;;;;;;24.77;17.20;;;13.20;99.90;;;;;;5309590;26;20001;-84
2024/04/12 00:24:24;;;;;;;23.17;16.70;;;13.20;99.90;;;;;;5304158;26;20002;-84
2024/04/12 00:26:53;;;;;;;27.95;19.05;;;13.30;99.90;;;;;;5329032;26;20023;-84
2024/04/12 00:29:30;;;;;;;28.45;19.35;;;13.40;99.90;;;;;;5331155;26;20005;-84
2024/04/12 00:32:20;;;;;;;24.08;18.88;;;13.00;99.90;;;;;;5334633;26;20009;-84
2024/04/12 00:34:51;;;;;;;28.58;19.52;;;13.10;99.90;;;;;;5330445;26;20032;-84
2024/04/12 00:37:20;;;;;;;28.67;19.95;;;13.30;99.90;;;;;;5337785;26;20028;-84
2024/04/12 00:39:49;;;;;;;30.38;19.60;;;13.10;99.90;;;;;;5307792;26;20015;-83
2024/04/12 00:42:26;;;;;;;32.55;20.58;;;13.10;99.90;;;;;;5306130;26;20381;-84
2024/04/12 00:44:58;;;;;;;30.45;21.13;;;13.10;99.90;;;;;;5299213;26;20008;-84
2024/04/12 00:47:27;;;;;;;28.17;19.98;;;13.70;99.90;;;;;;5275851;26;20008;-84
2024/04/12 00:49:56;;;;;;;30.55;20.13;;;13.40;99.90;;;;;;5301764;26;20009;-83
2024/04/12 00:52:27;;;;;;;34.97;21.17;;;13.10;99.90;;;;;;5278072;26;20495;-84
2024/04/12 00:55:03;;;;;;;34.38;22.73;;;13.90;99.90;;;;;;5301046;26;20001;-84
2024/04/12 00:57:38;;;;;;;34.95;21.85;;;13.00;99.90;;;;;;5277712;26;20019;-83
2024/04/12 01:00:10;;;;;;;33.22;21.95;;;13.10;99.90;;;;;;5275688;26;20044;-83
2024/04/12 01:02:43;;;;;;;31.48;22.52;;;13.10;99.90;;;;;;5306148;26;20015;-84
2024/04/12 01:05:14;;;;;;;37.53;23.50;;;13.20;99.90;;;;;;5298292;26;20009;-84
2024/04/12 01:07:48;;;;;;;39.47;25.75;;;13.10;99.90;;;;;;5304428;26;20026;-83
2024/04/12 01:10:21;;;;;;;38.58;24.48;;;13.00;99.90;;;;;;5279666;26;20024;-84
2024/04/12 01:12:53;;;;;;;34.38;23.63;;;13.20;99.90;;;;;;5296757;26;20015;-83
2024/04/12 01:15:32;;;;;;;39.95;26.17;;;13.30;99.90;;;;;;5272955;26;20009;-83
2024/04/12 01:18:11;;;;;;;38.95;25.35;;;13.20;99.90;;;;;;5304960;26;20019;-83
2024/04/12 01:20:39;;;;;;;36.33;25.73;;;13.10;99.90;;;;;;5336812;26;20373;-84
2024/04/12 01:23:07;;;;;;;39.63;26.65;;;13.50;99.90;;;;;;5299084;26;20012;-84
2024/04/12 01:25:45;;;;;;;40.95;27.10;;;13.20;99.90;;;;;;5302455;26;20008;-83
2024/04/12 01:28:16;;;;;;;37.60;26.02;;;13.30;99.90;;;;;;5267618;26;20009;-83
2024/04/12 01:30:46;;;;;;;38.25;26.98;;;13.20;99.90;;;;;;5301192;26;20041;-84
2024/04/12 01:33:20;;;;;;;40.92;27.85;;;13.50;99.90;;;;;;5299997;26;20027;-83
2024/04/12 01:35:49;;;;;;;40.08;27.02;;;13.00;99.90;;;;;;5302727;26;20012;-83
2024/04/12 01:38:16;;;;;;;39.15;28.13;;;13.20;99.90;;;;;;5281755;26;20005;-83
2024/04/12 01:40:46;;;;;;;41.22;28.40;;;13.60;99.90;;;;;;5308179;26;20008;-82
2024/04/12 01:43:13;;;;;;;41.58;29.02;;;13.20;99.90;;;;;;5300191;26;20014;-84
2024/04/12 01:45:40;;;;;;;40.65;28.65;;;13.30;99.90;;;;;;5308673;26;20023;-83
2024/04/12 01:48:10;;;;;;;40.80;28.92;;;13.20;99.90;;;;;;5308045;26;20001;-84
2024/04/12 01:50:40;;;;;;;41.63;31.10;;;13.90;99.90;;;;;;5304246;26;20019;-84
2024/04/12 01:53:10;;;;;;;42.55;30.58;;;13.60;99.90;;;;;;5339153;26;20035;-83
2024/04/12 01:55:40;;;;;;;45.53;30.90;;;13.40;99.90;;;;;;5308083;26;19998;-84
2024/04/12 01:58:07;;;;;;;40.90;29.38;;;13.90;99.90;;;;;;5303634;26;20010;-84
2024/04/12 02:00:35;;;;;;;41.88;29.02;;;13.30;99.90;;;;;;5306566;26;20019;-83
2024/04/12 02:03:02;;;;;;;37.58;27.58;;;13.90;99.90;;;;;;5335576;26;20005;-84
2024/04/12 02:05:32;;;;;;;37.35;27.02;;;13.30;99.90;;;;;;5310180;26;20001;-84
2024/04/12 02:08:07;;;;;;;31.63;24.88;;;13.40;99.90;;;;;;5339439;26;20024;-83
2024/04/12 02:10:41;;;;;;;;;;;13.30;99.90;;;;;;5280894;26;20011;-84
2024/04/12 02:13:17;;;;;;;26.35;22.27;;;13.30;99.90;;;;;;5310702;26;20416;-83
2024/04/12 02:15:56;;;;;;;27.67;22.73;;;13.30;99.90;;;;;;5310651;26;20001;-84
2024/04/12 02:18:23;;;;;;;25.42;21.30;;;13.40;99.90;;;;;;5307098;26;20005;-83
2024/04/12 02:20:52;;;;;;;23.40;19.90;;;14.30;99.90;;;;;;5338424;26;20008;-84
2024/04/12 02:23:19;;;;;;;27.30;21.65;;;13.40;99.90;;;;;;5308409;26;20007;-84
2024/04/12 02:25:47;;;;;;;24.30;20.90;;;13.40;99.90;;;;;;5310295;26;20009;-83
2024/04/12 02:28:16;;;;;;;26.80;20.52;;;13.90;99.90;;;;;;5334612;26;20036;-84
2024/04/12 02:30:45;;;;;;;23.33;20.20;;;13.60;99.90;;;;;;5298997;26;20015;-84
2024/04/12 02:33:17;;;;;;;23.25;19.98;;;13.40;99.90;;;;;;5336152;26;20032;-83
2024/04/12 02:35:45;;;;;;;21.10;19.02;;;13.70;99.90;;;;;;5303917;26;20005;-83
2024/04/12 02:38:16;;;;;;;22.25;19.70;;;13.40;99.90;;;;;;5279752;26;20009;-84
2024/04/12 02:40:44;;;;;;;19.52;17.55;;;13.40;99.90;;;;;;5302460;26;20015;-84
2024/04/12 02:43:15;;;;;;;20.15;17.77;;;13.60;99.90;;;;;;5309299;26;19997;-84
2024/04/12 02:45:49;;;;;;;19.00;16.95;;;13.40;99.90;;;;;;5336559;26;19997;-83
2024/04/12 02:48:22;;;;;;;20.65;17.67;;;13.40;99.90;;;;;;5303022;26;20028;-85
2024/04/12 02:50:53;;;;;;;18.27;16.42;;;13.50;99.90;;;;;;5335744;26;20378;-84
2024/04/12 02:53:25;;;;;;;19.52;17.48;;;14.10;99.90;;;;;;5337410;26;20019;-83
2024/04/12 02:56:14;;;;;;;18.45;16.65;;;13.60;99.90;;;;;;5335952;26;20505;-83
2024/04/12 02:58:44;;;;;;;20.23;17.65;;;13.50;99.90;;;;;;5308934;26;20373;-84
2024/04/12 03:01:16;;;;;;;19.52;17.63;;;14.30;99.90;;;;;;5337529;26;20017;-84
2024/04/12 03:04:01;;;;;;;19.92;17.83;;;13.40;99.90;;;;;;5287120;26;20052;-84
2024/04/12 03:06:32;;;;;;;20.50;18.42;;;14.00;99.90;;;;;;5298708;26;20009;-84
2024/04/12 03:09:05;;;;;;;21.35;18.58;;;13.50;99.90;;;;;;5304835;26;20022;-84
2024/04/12 03:11:36;;;;;;;20.75;18.63;;;13.50;99.90;;;;;;5309061;26;20037;-84
2024/04/12 03:14:09;;;;;;;20.20;18.17;;;13.50;99.90;;;;;;5333565;26;20019;-84
2024/04/12 03:16:37;;;;;;;20.85;18.80;;;13.50;99.90;;;;;;5339509;26;20036;-84
2024/04/12 03:19:07;;;;;;;19.75;16.80;;;13.40;99.90;;;;;;5302496;26;20001;-84
2024/04/12 03:21:38;;;;;;;19.23;17.35;;;13.40;99.90;;;;;;5307700;26;20031;-84
2024/04/12 03:24:13;;;;;;;18.40;16.52;;;14.30;99.90;;;;;;5305016;26;20019;-84
2024/04/12 03:26:43;;;;;;;16.48;14.75;;;13.70;99.90;;;;;;5335686;26;20465;-84
2024/04/12 03:29:16;;;;;;;16.92;15.15;;;13.50;99.90;;;;;;5308017;26;20479;-84
2024/04/12 03:31:47;;;;;;;16.58;14.93;;;13.40;99.90;;;;;;5336264;26;20005;-84
2024/04/12 03:34:14;;;;;;;16.23;14.63;;;13.90;99.90;;;;;;5337026;26;20001;-84
2024/04/12 03:41:50;;;;;;;16.00;14.40;;;13.40;99.90;;;;;;5339003;26;20040;-84
2024/04/12 03:44:20;;;;;;;17.27;15.63;;;13.40;99.90;;;;;;5336503;26;20040;-85
2024/04/12 03:46:51;;;;;;;17.95;16.25;;;14.10;99.90;;;;;;5334119;26;20249;-84
2024/04/12 03:49:21;;;;;;;16.63;14.88;;;13.50;99.90;;;;;;5337954;26;20040;-84
2024/04/12 03:51:56;;;;;;;18.42;16.23;;;13.50;99.90;;;;;;5340158;26;20384;-84
2024/04/12 03:54:27;;;;;;;17.35;15.75;;;13.40;99.90;;;;;;5336666;26;20487;-84
2024/04/12 03:57:05;;;;;;;15.77;14.20;;;13.40;99.90;;;;;;5337122;26;20026;-84
2024/04/12 03:59:34;;;;;;;15.80;14.35;;;13.40;99.90;;;;;;5296674;26;20005;-84
2024/04/12 04:02:07;;;;;;;14.85;13.43;;;13.50;99.90;;;;;;5308048;26;20009;-84
2024/04/12 04:04:44;;;;;;;14.25;12.85;;;13.60;99.90;;;;;;5307993;26;20000;-84
2024/04/12 04:07:15;;;;;;;14.88;13.57;;;13.60;99.90;;;;;;5336668;26;20037;-84
2024/04/12 04:09:42;;;;;;;14.35;13.05;;;13.60;99.90;;;;;;5302245;26;20001;-84
2024/04/12 04:12:14;;;;;;;15.88;14.20;;;13.50;99.90;;;;;;5303120;26;20010;-84
2024/04/12 04:19:30;;;;;;;16.88;15.10;;;13.40;99.90;;;;;;5204590;27;20006;-84
2024/04/12 04:25:36;;;;;;;16.23;14.60;;;13.40;99.90;;;;;;5255639;26;20528;-84
2024/04/12 04:28:13;;;;;;;16.15;14.68;;;13.40;99.90;;;;;;5330692;26;20472;-84
2024/04/12 04:31:39;;;;;;;14.98;13.15;;;13.50;99.90;;;;;;5298944;26;20020;-83
2024/04/12 04:37:56;;;;;;;11.45;9.93;;;13.80;99.90;;;;;;5320353;26;20005;-83
2024/04/12 04:40:25;;;;;;;10.18;9.18;;;13.30;99.90;;;;;;5296522;26;20001;-83
2024/04/12 04:42:54;;;;;;;10.85;9.73;;;13.30;99.90;;;;;;5276263;26;20037;-83
2024/04/12 04:45:21;;;;;;;11.05;9.43;;;13.50;99.90;;;;;;5306761;26;20372;-83
2024/04/12 04:47:48;;;;;;;9.93;8.93;;;13.40;99.90;;;;;;5303761;26;20065;-81
2024/04/12 04:50:20;;;;;;;10.07;9.07;;;13.40;99.90;;;;;;5329413;26;20019;-83
2024/04/12 04:53:20;;;;;;;10.80;9.55;;;13.20;99.90;;;;;;5330405;26;20029;-82
2024/04/12 04:55:49;;;;;;;9.70;8.80;;;13.40;99.90;;;;;;5329213;26;20029;-87
2024/04/12 04:58:22;;;;;;;10.52;9.52;;;14.00;99.90;;;;;;5304587;26;20021;-85
2024/04/12 05:00:53;;;;;;;11.23;10.20;;;13.40;99.90;;;;;;5311159;26;20037;-87
2024/04/12 05:03:20;;;;;;;11.68;10.48;;;13.40;99.90;;;;;;5275779;26;20036;-85
2024/04/12 05:05:54;;;;;;;12.57;11.27;;;13.80;99.90;;;;;;5309037;26;20877;-86
2024/04/12 05:08:23;;;;;;;13.43;10.88;;;13.20;99.90;;;;;;5269459;26;20034;-86
2024/04/12 05:10:55;;;;;;;13.27;11.05;;;13.50;99.90;;;;;;5279880;26;20045;-85
2024/04/12 05:13:30;;;;;;;12.80;11.50;;;13.20;99.90;;;;;;5333936;26;20467;-85
2024/04/12 05:16:40;;;;;;;13.02;11.52;;;13.20;99.90;;;;;;5305153;26;20433;-85
2024/04/12 05:19:09;;;;;;;12.82;11.27;;;13.10;99.90;;;;;;5268745;26;20455;-85
2024/04/12 05:21:42;;;;;;;13.45;10.98;;;13.80;99.90;;;;;;5301835;26;20016;-85
2024/04/12 05:24:09;;;;;;;14.88;11.32;;;14.10;99.90;;;;;;5273740;26;20030;-86
2024/04/12 05:26:42;;;;;;;12.60;10.55;;;13.10;99.90;;;;;;5340679;26;20015;-86
2024/04/12 05:29:13;;;;;;;15.23;10.60;;;13.30;99.90;;;;;;5299057;26;20030;-85
2024/04/12 05:31:42;;;;;;;12.10;10.70;;;13.20;99.90;;;;;;5282953;26;20382;-85
2024/04/12 05:34:12;;;;;;;11.98;10.50;;;14.00;99.90;;;;;;5279077;26;20033;-85
2024/04/12 05:36:41;;;;;;;12.20;10.73;;;12.80;99.90;;;;;;5309772;26;20044;-85
2024/04/12 05:39:11;;;;;;;13.10;9.75;;;13.50;99.90;;;;;;5336662;26;20404;-85
2024/04/12 05:41:38;;;;;;;12.65;9.77;;;13.20;99.90;;;;;;5306473;26;20479;-85
2024/04/12 05:44:27;;;;;;;11.90;9.93;;;13.80;99.90;;;;;;5340047;26;20033;-85
2024/04/12 18:00:34;;;;;;;8.88;3.50;;;15.60;99.90;;;;;;5305756;26;20016;-84
2024/04/12 18:03:00;;;;;;;10.40;2.90;;;15.60;99.90;;;;;;5312280;26;20002;-84
2024/04/12 18:05:41;;;;;;;7.53;2.50;;;15.70;99.90;;;;;;5295296;26;20027;-84
2024/04/12 18:08:09;;;;;;;7.40;2.30;;;15.60;99.90;;;;;;5302317;26;20084;-85
2024/04/12 18:10:42;;;;;;;7.93;2.72;;;15.70;99.90;;;;;;5300523;26;20013;-84
2024/04/12 18:13:08;;;;;;;6.28;2.17;;;15.60;99.90;;;;;;5300205;26;20990;-84
2024/04/12 18:16:08;;;;;;;8.23;2.63;;;16.10;99.90;;;;;;5318945;26;20075;-84
2024/04/12 18:19:19;;;;;;;6.07;2.25;;;15.60;99.90;;;;;;5324848;26;20009;-84
2024/04/12 18:22:16;;;;;;;8.50;2.60;;;15.50;99.90;;;;;;5328928;26;20408;-84
2024/04/12 18:26:06;;;;;;;10.13;2.55;;;15.60;99.90;;;;;;5201158;27;20027;-84
2024/04/12 18:32:51;;;;;;;7.05;2.17;;;15.40;99.90;;;;;;5207613;27;20712;-84
2024/04/12 18:35:34;;;;;;;5.72;1.88;;;15.30;99.90;;;;;;5270173;26;20005;-84
2024/04/12 18:50:06;;;;;;;8.75;3.03;;;14.80;99.90;;;;;;5243650;27;21951;-87
2024/04/12 18:54:03;;;;;;;10.75;2.78;;;14.80;99.90;;;;;;5240219;27;20480;-87
2024/04/12 19:01:36;;;;;;;9.10;2.40;;;14.70;99.90;;;;;;5246761;27;20001;-86
2024/04/12 19:04:38;;;;;;;4.85;1.60;;;14.50;99.90;;;;;;5207403;27;20022;-85
2024/04/12 19:07:53;;;;;;;6.30;2.35;;;14.50;99.90;;;;;;5200137;27;20064;-86
2024/04/12 19:10:40;;;;;;;6.38;2.30;;;14.40;99.90;;;;;;5206039;27;20524;-85
2024/04/12 19:18:01;;;;;;;7.25;2.95;;;14.30;99.90;;;;;;5234430;27;20011;-87
2024/04/12 19:24:53;;;;;;;7.22;3.03;;;14.20;99.90;;;;;;5237894;27;20073;-89
2024/04/12 19:46:25;;;;;;;8.40;2.92;;;13.70;99.90;;;;;;5178003;27;20259;-84
2024/04/12 19:49:29;;;;;;;5.45;2.78;;;13.90;99.90;;;;;;5151067;27;20001;-86
2024/04/12 19:53:05;;;;;;;5.35;3.10;;;13.50;99.90;;;;;;5133327;27;20019;-86
2024/04/12 19:59:37;;;;;;;5.85;2.50;;;13.30;99.90;;;;;;5172728;27;20040;-85
2024/04/12 20:02:10;;;;;;;11.93;3.63;;;13.30;99.90;;;;;;5202984;27;20011;-85
2024/04/12 20:04:51;;;;;;;10.98;3.22;;;13.70;99.90;;;;;;5159396;27;20518;-86
2024/04/12 20:07:35;;;;;;;9.60;3.55;;;13.20;99.90;;;;;;5211373;27;20007;-85
2024/04/12 20:10:02;;;;;;;4.82;3.05;;;13.30;99.90;;;;;;5241502;26;20025;-85
2024/04/12 20:13:13;;;;;;;5.35;2.33;;;13.20;99.90;;;;;;5315168;26;20016;-85
2024/04/12 20:16:29;;;;;;;4.47;2.47;;;13.10;99.90;;;;;;5329402;26;20007;-87
2024/04/12 20:18:56;;;;;;;6.47;2.60;;;13.00;99.90;;;;;;5282025;26;20004;-86
2024/04/12 20:21:22;;;;;;;7.40;3.60;;;13.10;99.90;;;;;;5281783;26;20019;-85
2024/04/12 20:23:49;;;;;;;8.00;4.07;;;13.10;99.90;;;;;;5304933;26;20411;-86
2024/04/12 20:26:18;;;;;;;9.00;4.35;;;13.00;99.90;;;;;;5335714;26;20001;-85
2024/04/12 20:37:27;;;;;;;8.57;3.38;;;12.90;99.90;;;;;;5231413;27;20070;-86
2024/04/12 20:41:25;;;;;;;8.68;3.85;;;12.70;99.90;;;;;;5224042;27;20015;-86
2024/04/12 21:07:46;;;;;;;6.57;3.30;;;12.70;99.90;;;;;;5228125;26;20004;-86
2024/04/12 21:11:20;;;;;;;10.38;3.47;;;12.70;99.90;;;;;;5236240;27;20474;-86
2024/04/12 21:14:16;;;;;;;6.50;3.92;;;12.70;99.90;;;;;;5150338;27;20008;-85
2024/04/12 21:16:50;;;;;;;5.28;3.35;;;12.70;99.90;;;;;;5208336;27;20110;-86
2024/04/12 21:20:24;;;;;;;9.35;3.72;;;12.70;99.90;;;;;;5237035;27;20002;-86
2024/04/12 21:23:09;;;;;;;6.40;2.88;;;12.70;99.90;;;;;;5235073;27;20454;-86
2024/04/12 21:34:17;;;;;;;7.78;3.45;;;12.60;99.90;;;;;;5208958;27;20078;-86
2024/04/12 21:37:52;;;;;;;6.38;3.15;;;12.60;99.90;;;;;;5141754;27;20058;-86
2024/04/12 21:41:56;;;;;;;5.65;3.10;;;12.50;99.90;;;;;;5126411;27;20019;-86
2024/04/12 21:45:26;;;;;;;5.07;2.80;;;12.50;99.90;;;;;;5269419;27;20010;-86
2024/04/12 21:52:50;;;;;;;7.03;3.05;;;12.40;99.90;;;;;;5201457;27;20132;-86
2024/04/12 21:56:09;;;;;;;4.07;2.83;;;12.40;99.90;;;;;;5204110;27;20470;-86
2024/04/12 22:03:46;;;;;;;5.10;2.75;;;12.30;99.90;;;;;;5211256;27;20896;-87
2024/04/12 22:14:35;;;;;;;3.13;2.53;;;12.20;99.90;;;;;;5026100;28;20018;-86
2024/04/12 22:17:47;;;;;;;5.65;2.58;;;12.20;99.90;;;;;;5016363;28;20023;-86
2024/04/12 22:21:40;;;;;;;3.78;2.40;;;12.40;99.90;;;;;;5020957;28;20019;-86
2024/04/12 22:24:42;;;;;;;4.03;2.13;;;12.30;99.90;;;;;;4982014;28;20012;-85
2024/04/12 22:27:45;;;;;;;5.25;2.15;;;12.30;99.90;;;;;;4999959;28;20018;-86
2024/04/12 22:34:30;;;;;;;3.80;2.10;;;12.40;99.90;;;;;;4993475;28;20155;-86
2024/04/12 22:41:23;;;;;;;4.80;2.10;;;12.40;99.90;;;;;;5108214;27;21361;-85
2024/04/12 22:43:51;;;;;;;6.32;1.92;;;12.50;99.90;;;;;;5087777;28;20006;-85
2024/04/12 22:46:54;;;;;;;3.35;1.67;;;12.60;99.90;;;;;;5086750;27;20769;-85
2024/04/12 22:50:10;;;;;;;2.80;1.50;;;12.60;99.90;;;;;;5283326;26;20024;-85
2024/04/12 22:52:50;;;;;;;5.13;2.10;;;12.70;99.90;;;;;;5336723;26;20015;-85
2024/04/12 22:55:26;;;;;;;2.05;1.40;;;12.70;99.90;;;;;;5335881;26;19998;-86
2024/04/12 22:57:56;;;;;;;6.68;1.67;;;12.70;99.90;;;;;;5342125;26;20000;-85
2024/04/12 23:06:07;;;;;;;5.45;1.65;;;12.70;99.90;;;;;;5342046;26;20013;-86
2024/04/12 23:10:01;;;;;;;4.53;1.95;;;12.70;99.90;;;;;;5345596;26;20011;-87
2024/04/12 23:13:35;;;;;;;3.25;1.58;;;12.70;99.90;;;;;;5330019;26;20072;-85
2024/04/12 23:17:06;;;;;;;3.45;1.52;;;12.70;99.90;;;;;;5240881;27;20044;-85
2024/04/12 23:19:46;;;;;;;4.78;1.60;;;12.70;99.90;;;;;;5236623;27;20021;-86
2024/04/12 23:22:14;;;;;;;2.78;1.50;;;12.80;99.90;;;;;;5207568;27;20004;-86
2024/04/12 23:24:56;;;;;;;3.58;1.45;;;12.70;99.90;;;;;;5189882;27;20007;-86
2024/04/12 23:27:31;;;;;;;3.92;1.27;;;12.80;99.90;;;;;;5226973;27;20358;-85
2024/04/12 23:30:20;;;;;;;4.53;2.60;;;12.80;99.90;;;;;;5277250;26;20009;-85
2024/04/12 23:38:00;;;;;;;3.58;1.10;;;12.80;99.90;;;;;;5135426;27;20016;-85
2024/04/12 23:41:45;;;;;;;7.32;1.70;;;12.90;99.90;;;;;;5100656;28;20073;-85
2024/04/12 23:49:12;;;;;;;3.47;1.20;;;12.90;99.90;;;;;;5072786;28;20010;-85
2024/04/12 23:51:50;;;;;;;2.85;1.48;;;12.80;99.90;;;;;;5164448;27;20913;-85
2024/04/12 23:54:22;;;;;;;2.35;1.30;;;12.80;99.90;;;;;;5209755;27;20335;-85
2024/04/12 23:56:54;;;;;;;4.65;1.45;;;13.60;99.90;;;;;;5222779;27;20003;-86
